Time Latitude Longitude Accuracy (66% radius in meters) Altitude (meters) Speed (km/hour) Bearing (degrees) Battery (%) GPS flag
12:03:21 56.990687 39.450149 1.5 182.80000305176 0.85999995470047 280.21728515625 5 1 delete
12:03:16 56.990675 39.450226 1.5 184.30000305176 0.88999998569489 283.85375976562 5 1 delete
12:03:06 56.990654 39.450417 2 186.5 0.94999998807907 286.02355957031 5 1 delete
12:02:51 56.990641 39.450645 2 187.60000610352 1.1200000047684 279.27795410156 5 1 delete
12:02:41 56.990631 39.450822 2 188.19999694824 0.70999997854233 288.27026367188 5 1 delete
12:02:31 56.990615 39.451050 2 189.10000610352 1.0299999713898 288.66577148438 5 1 delete
12:02:14 56.990530 39.451194 10.5 185.5 0.26999998092651 209.4873046875 5 1 delete
11:52:10 56.984926 39.454462 1 169.69999694824 0.95999997854233 357.92907714844 6 1 delete
11:52:05 56.984883 39.454473 1 168.80000305176 0.89999997615814 358.79150390625 6 1 delete
11:51:45 56.984814 39.454442 1 167.19999694824 1.1899999380112 24.06005859375 6 1 delete
11:51:35 56.984694 39.454351 1 168.30000305176 1.3999999761581 20.604858398438 6 1 delete
11:51:25 56.984517 39.454310 1.5 168.19999694824 1.9299999475479 3.3013916015625 6 1 delete
11:51:15 56.984357 39.454359 1.5 170.10000610352 1.6299999952316 350.14526367188 6 1 delete
11:51:05 56.984210 39.454366 1.5 171.10000610352 1.6699999570847 358.32458496094 6 1 delete
11:50:55 56.984100 39.454338 1.5 172.39999389648 1.1999999284744 2.252197265625 6 1 delete
11:50:45 56.984007 39.454280 1.5 172.10000610352 1.1599999666214 23.291015625 6 1 delete
11:50:35 56.983908 39.454218 3.5 170.19999694824 1.039999961853 19.308471679688 6 1 delete
11:50:29 56.983986 39.454122 13.5 183.60000610352 0 0 6 1 delete
11:40:24 56.978945 39.450642 2 184.60000610352 1.0199999809265 313.20922851562 6 1 delete
11:40:14 56.978880 39.450770 2 183.5 1.1599999666214 321.86645507812 6 1 delete
11:40:04 56.978815 39.450885 5.5 179.19999694824 0.9899999499321 307.19421386719 6 1 delete
11:39:58 56.978731 39.451054 12 173.80000305176 0.70999997854233 65.357666015625 6 1 delete
11:29:50 56.976158 39.454886 4.5 185.89999389648 0 0 7 1 delete
11:29:24 56.976159 39.454831 12 194.19999694824 1.3899999856949 147.00256347656 7 1 delete
11:19:20 56.967070 39.455540 1.5 175.5 2.2799999713898 348.60168457031 8 1 delete
11:19:15 56.966960 39.455582 1.5 174.60000610352 2.5599999427795 346.41540527344 8 1 delete
11:19:10 56.966854 39.455615 1.5 175.5 2.5 350.02990722656 8 1 delete
11:19:05 56.966741 39.455656 1.5 175.30000305176 2.4900000095367 346.04187011719 8 1 delete
11:19:00 56.966630 39.455708 2 174.5 2.5199999809265 347.67333984375 8 1 delete
11:18:55 56.966525 39.455757 2.5 175.69999694824 2.3199999332428 347.28332519531 8 1 delete
11:18:49 56.966425 39.455816 9 176.39999389648 1.789999961853 358.67614746094 8 1 delete
11:18:44 56.966249 39.455857 8.5 179.5 2.1399998664856 348.57421875 8 1 delete
11:08:38 56.958345 39.463829 1.5 189.89999389648 0.87000000476837 351.57348632812 8 1 delete
11:08:33 56.958285 39.463877 2 190.5 0.81000000238419 347.76123046875 8 1 delete
11:08:12 56.958161 39.463859 9.5 169.19999694824 0.85999995470047 15.897216796875 8 1 delete
10:58:10 56.953797 39.454274 1.5 178.5 1.5899999141693 70.933227539062 9 1 delete
10:58:05 56.953770 39.454145 1.5 177.69999694824 1.5099999904633 76.085815429688 9 1 delete
10:58:00 56.953761 39.454003 1.5 177.5 1.5099999904633 88.928833007812 9 1 delete
10:57:45 56.953742 39.453739 3 177.19999694824 1.0699999332428 45.076904296875 9 1 delete
10:57:39 56.953629 39.453696 8.5 183.80000305176 1.2200000286102 17.2705078125 9 1 delete
10:47:37 56.947995 39.444864 1.5 181 1.1299999952316 58.326416015625 9 1 delete
10:47:32 56.947961 39.444766 1.5 181.10000610352 1.1399999856949 55.316162109375 9 1 delete
10:47:27 56.947931 39.444707 1.5 180.19999694824 1.2799999713898 54.618530273438 9 1 delete
10:47:17 56.947883 39.444548 3 181.10000610352 1.1999999284744 65.571899414062 9 1 delete
10:47:06 56.947822 39.444363 13.5 184.69999694824 1.6200000047684 50.905151367188 9 1 delete
10:36:56 56.942558 39.436197 1.5 184.5 1.6899999380112 28.723754882812 10 1 delete
10:36:46 56.942411 39.436090 1.5 183.80000305176 1.7699999809265 19.193115234375 10 1 delete
10:36:36 56.942277 39.435965 1.5 183.39999389648 1.7099999189377 27.482299804688 10 1 delete
10:36:26 56.942137 39.435855 1.5 181.60000610352 1.7699999809265 16.962890625 10 1 delete
10:36:16 56.941998 39.435784 4 180.5 1.6799999475479 20.401611328125 10 1 delete